createdAt,value
2022-07-29T00:01:20.172Z,100971.80
2022-07-29T00:03:48.933Z,100975.00
2022-07-29T00:06:17.323Z,100976.40
2022-07-29T00:08:45.069Z,100976.40
2022-07-29T00:11:13.062Z,100969.60
2022-07-29T00:13:40.912Z,100967.00
2022-07-29T00:16:08.695Z,100969.20
2022-07-29T00:18:36.510Z,100964.20
2022-07-29T00:21:04.308Z,100958.00
2022-07-29T00:23:36.480Z,100954.00
2022-07-29T00:26:04.625Z,100950.60
2022-07-29T00:28:32.494Z,100947.60
2022-07-29T00:31:00.548Z,100947.80
2022-07-29T00:33:29.205Z,100946.80
2022-07-29T00:35:57.255Z,100940.40
2022-07-29T00:38:25.186Z,100944.80
2022-07-29T00:40:53.443Z,100939.40
2022-07-29T00:43:21.217Z,100938.00
2022-07-29T00:45:49.021Z,100933.80
2022-07-29T00:48:16.710Z,100934.40
2022-07-29T00:50:44.478Z,100928.20
2022-07-29T00:53:13.096Z,100923.80
2022-07-29T00:55:40.949Z,100922.40
2022-07-29T00:58:09.606Z,100927.80
2022-07-29T01:00:37.977Z,100924.80
2022-07-29T01:03:05.887Z,100932.00
2022-07-29T01:05:49.926Z,100934.40
2022-07-29T01:08:21.199Z,100934.40
2022-07-29T01:10:50.341Z,100932.20
2022-07-29T01:13:18.930Z,100935.20
2022-07-29T01:16:14.013Z,100933.40
2022-07-29T01:18:48.067Z,100934.60
2022-07-29T01:21:43.395Z,100938.60
2022-07-29T01:24:59.735Z,100935.40
2022-07-29T01:28:21.458Z,100934.80
2022-07-29T01:30:54.679Z,100935.60
2022-07-29T01:33:44.931Z,100933.40
2022-07-29T01:36:22.909Z,100935.20
2022-07-29T01:39:21.050Z,100934.60
2022-07-29T01:42:05.615Z,100939.00
2022-07-29T01:44:42.435Z,100937.80
2022-07-29T01:47:18.493Z,100932.40
2022-07-29T01:49:52.455Z,100936.80
2022-07-29T01:52:28.707Z,100934.80
2022-07-29T01:55:02.690Z,100929.00
2022-07-29T01:57:34.570Z,100936.80
2022-07-29T02:00:05.314Z,100937.20
2022-07-29T02:02:44.652Z,100938.80
2022-07-29T02:05:17.119Z,100938.40
2022-07-29T02:07:48.282Z,100941.60
2022-07-29T02:10:25.847Z,100940.00
2022-07-29T02:12:56.884Z,100939.60
2022-07-29T02:15:29.468Z,100933.20
2022-07-29T02:18:16.480Z,100934.40
2022-07-29T02:20:52.818Z,100928.20
2022-07-29T02:23:23.904Z,100928.00
2022-07-29T02:25:57.950Z,100931.80
2022-07-29T02:28:29.446Z,100930.00
2022-07-29T02:31:01.931Z,100932.80
2022-07-29T02:33:32.874Z,100938.40
2022-07-29T02:36:02.579Z,100940.60
2022-07-29T02:38:50.028Z,100944.20
2022-07-29T02:41:58.313Z,100944.00
2022-07-29T02:44:31.237Z,100944.00
2022-07-29T02:47:22.882Z,100938.80
2022-07-29T02:50:01.162Z,100946.60
2022-07-29T02:53:04.410Z,100945.00
2022-07-29T02:55:40.404Z,100938.40
2022-07-29T02:58:29.646Z,100944.60
2022-07-29T03:01:05.405Z,100943.80
2022-07-29T03:03:38.862Z,100942.00
2022-07-29T03:06:08.503Z,100944.20
2022-07-29T03:08:37.877Z,100945.40
2022-07-29T03:11:06.240Z,100947.00
2022-07-29T03:13:35.814Z,100947.00
2022-07-29T03:16:04.523Z,100946.80
2022-07-29T03:18:33.258Z,100945.20
2022-07-29T03:21:01.218Z,100947.80
2022-07-29T03:23:35.241Z,100943.20
2022-07-29T03:26:04.983Z,100940.00
2022-07-29T03:28:32.742Z,100942.40
2022-07-29T03:31:02.065Z,100936.60
2022-07-29T03:33:31.274Z,100937.00
2022-07-29T03:35:59.327Z,100935.60
2022-07-29T03:38:31.947Z,100929.40
2022-07-29T03:41:07.024Z,100932.40
2022-07-29T03:43:49.124Z,100928.80
2022-07-29T03:46:19.375Z,100929.80
2022-07-29T03:48:53.854Z,100936.20
2022-07-29T03:51:34.049Z,100933.00
2022-07-29T03:54:09.667Z,100932.60
2022-07-29T03:56:49.063Z,100933.60
2022-07-29T03:59:20.425Z,100939.20
2022-07-29T04:01:49.624Z,100941.80
2022-07-29T04:04:18.159Z,100947.20
2022-07-29T04:06:48.180Z,100947.20
2022-07-29T04:09:16.207Z,100950.20
2022-07-29T04:11:59.176Z,100947.60
2022-07-29T04:14:33.912Z,100955.20
2022-07-29T04:17:03.782Z,100956.80
2022-07-29T04:19:32.709Z,100956.00
2022-07-29T04:22:01.895Z,100951.00
2022-07-29T04:24:29.829Z,100948.60
2022-07-29T04:26:57.551Z,100949.60
2022-07-29T04:29:25.584Z,100942.80
2022-07-29T04:31:53.443Z,100955.20
2022-07-29T04:34:21.346Z,100957.80
2022-07-29T04:36:49.238Z,100959.00
2022-07-29T04:39:22.666Z,100962.20
2022-07-29T04:41:52.514Z,100953.40
2022-07-29T04:44:28.649Z,100950.60
2022-07-29T04:46:58.482Z,100948.20
2022-07-29T04:49:26.465Z,100949.40
2022-07-29T04:51:54.573Z,100949.00
2022-07-29T04:54:22.493Z,100949.20
2022-07-29T04:56:50.205Z,100948.40
2022-07-29T04:59:17.933Z,100958.20
2022-07-29T05:01:45.706Z,100954.00
2022-07-29T05:04:14.090Z,100952.80
2022-07-29T05:06:41.963Z,100955.80
2022-07-29T05:09:09.719Z,100953.00
2022-07-29T05:11:37.390Z,100949.80
2022-07-29T05:14:05.098Z,100953.00
2022-07-29T05:16:32.810Z,100953.20
2022-07-29T05:19:00.553Z,100948.40
2022-07-29T05:21:28.244Z,100953.20
2022-07-29T05:23:56.067Z,100958.60
2022-07-29T05:26:23.807Z,100955.60
2022-07-29T05:28:51.639Z,100956.60
2022-07-29T05:31:19.574Z,100957.40
2022-07-29T05:33:47.366Z,100954.60
2022-07-29T05:36:15.110Z,100949.40
2022-07-29T05:38:42.906Z,100960.00
2022-07-29T05:41:10.664Z,100963.00
2022-07-29T05:43:38.586Z,100962.60
2022-07-29T05:46:06.383Z,100965.60
2022-07-29T05:48:34.148Z,100963.00
2022-07-29T05:51:02.295Z,100969.80
2022-07-29T05:53:30.038Z,100965.40
2022-07-29T05:55:57.806Z,100965.20
2022-07-29T05:58:25.618Z,100970.40
2022-07-29T06:00:53.857Z,100970.20
2022-07-29T06:03:21.573Z,100970.20
2022-07-29T06:05:49.307Z,100971.80
2022-07-29T06:08:17.028Z,100971.20
2022-07-29T06:10:44.959Z,100967.00
2022-07-29T06:13:13.740Z,100968.00
2022-07-29T06:15:41.838Z,100970.00
2022-07-29T06:18:11.120Z,100961.00
2022-07-29T06:20:39.066Z,100965.40
2022-07-29T06:23:07.097Z,100966.20
2022-07-29T06:25:37.577Z,100970.20
2022-07-29T06:28:05.465Z,100972.40
2022-07-29T06:30:33.792Z,100972.00
2022-07-29T06:33:02.869Z,100970.80
2022-07-29T06:35:39.042Z,100967.20
2022-07-29T06:38:30.344Z,100969.60
2022-07-29T06:41:00.938Z,100971.80
2022-07-29T06:43:51.917Z,100976.00
2022-07-29T06:46:21.649Z,100976.40
2022-07-29T06:48:50.244Z,100977.60
2022-07-29T06:51:22.759Z,100975.00
2022-07-29T06:53:58.082Z,100977.40
2022-07-29T06:56:26.547Z,100978.40
2022-07-29T06:58:54.258Z,100982.60
2022-07-29T07:01:22.160Z,100982.40
2022-07-29T07:03:50.700Z,100984.40
2022-07-29T07:06:18.473Z,100986.80
2022-07-29T07:08:46.368Z,100982.00
2022-07-29T07:11:14.189Z,100987.80
2022-07-29T07:13:41.970Z,100989.00
2022-07-29T07:16:09.930Z,100988.20
2022-07-29T07:18:37.673Z,100988.60
2022-07-29T07:21:06.630Z,100988.20
2022-07-29T07:23:34.282Z,100984.20
2022-07-29T07:26:02.006Z,100988.00
2022-07-29T07:28:30.246Z,100984.00
2022-07-29T07:30:57.983Z,100987.40
2022-07-29T07:33:25.758Z,100992.00
2022-07-29T07:35:53.517Z,100985.00
2022-07-29T07:38:21.211Z,100982.80
2022-07-29T07:40:48.951Z,100985.80
2022-07-29T07:43:16.707Z,100990.00
2022-07-29T07:45:44.607Z,100981.20
2022-07-29T07:48:12.435Z,100983.80
2022-07-29T07:50:40.266Z,100987.00
2022-07-29T07:53:08.168Z,100990.20
2022-07-29T07:56:08.175Z,100989.20
2022-07-29T07:58:29.864Z,100991.60
2022-07-29T08:00:57.825Z,100993.40
2022-07-29T08:03:25.595Z,100994.00
2022-07-29T08:05:55.137Z,100997.20
2022-07-29T08:08:22.864Z,100997.40
2022-07-29T08:10:53.672Z,100995.40
2022-07-29T08:13:24.842Z,100994.40
2022-07-29T08:15:58.983Z,100991.20
2022-07-29T08:18:29.848Z,100989.20
2022-07-29T08:20:58.682Z,100991.20
2022-07-29T08:23:32.948Z,100995.20
2022-07-29T08:26:15.265Z,100994.60
2022-07-29T08:28:46.795Z,100990.00
2022-07-29T08:31:15.250Z,100994.00
2022-07-29T08:33:43.729Z,100987.40
2022-07-29T08:36:11.483Z,100990.00
2022-07-29T08:38:39.227Z,100990.80
2022-07-29T08:41:07.090Z,100987.20
2022-07-29T08:43:38.211Z,100994.80
2022-07-29T08:46:06.048Z,100987.40
2022-07-29T08:48:35.285Z,100988.20
2022-07-29T08:51:04.560Z,100981.00
2022-07-29T08:53:33.965Z,100983.60
2022-07-29T08:56:02.908Z,100986.40
2022-07-29T08:58:36.915Z,100982.60
2022-07-29T09:01:09.913Z,100981.20
2022-07-29T09:03:42.377Z,100978.20
2022-07-29T09:06:13.427Z,100978.00
2022-07-29T09:08:41.825Z,100976.00
2022-07-29T09:11:09.706Z,100975.00
2022-07-29T09:13:37.420Z,100977.40
2022-07-29T09:16:09.397Z,100980.80
2022-07-29T09:18:44.022Z,100983.80
2022-07-29T09:21:36.976Z,100985.80
2022-07-29T09:24:14.533Z,100985.00
2022-07-29T09:26:47.017Z,100987.60
2022-07-29T09:29:20.999Z,100980.80
2022-07-29T09:31:53.251Z,100979.40
2022-07-29T09:34:29.612Z,100975.40
2022-07-29T09:36:58.272Z,100977.00
2022-07-29T09:39:38.959Z,100979.20
2022-07-29T09:42:07.602Z,100972.60
2022-07-29T09:44:51.238Z,100974.20
2022-07-29T09:47:22.736Z,100980.40
2022-07-29T09:50:00.499Z,100982.80
2022-07-29T09:52:30.895Z,100980.80
2022-07-29T09:55:18.267Z,100983.20
2022-07-29T09:57:48.377Z,100976.80
2022-07-29T10:00:19.862Z,100973.80
2022-07-29T10:02:48.839Z,100973.40
2022-07-29T10:05:26.770Z,100967.80
2022-07-29T10:08:06.141Z,100969.80
2022-07-29T10:10:41.044Z,100968.80
2022-07-29T10:13:15.672Z,100970.60
2022-07-29T10:15:46.863Z,100968.00
2022-07-29T10:18:18.335Z,100973.20
2022-07-29T10:20:46.375Z,100970.40
2022-07-29T10:23:14.969Z,100974.20
2022-07-29T10:25:46.382Z,100977.20
2022-07-29T10:28:16.686Z,100975.60
2022-07-29T10:30:46.909Z,100974.00
2022-07-29T10:33:37.755Z,100970.40
2022-07-29T10:37:11.574Z,100975.40
2022-07-29T10:40:51.029Z,100977.80
2022-07-29T10:43:28.234Z,100972.40
2022-07-29T10:46:00.880Z,100978.40
2022-07-29T10:48:28.949Z,100974.80
2022-07-29T10:51:07.026Z,100975.60
2022-07-29T10:53:51.942Z,100982.80
2022-07-29T10:56:25.608Z,100981.00
2022-07-29T10:59:21.633Z,100981.20
2022-07-29T11:01:56.672Z,100972.00
2022-07-29T11:04:45.857Z,100974.60
2022-07-29T11:07:17.255Z,100970.00
2022-07-29T11:09:46.508Z,100971.40
2022-07-29T11:12:37.417Z,100966.40
2022-07-29T11:15:09.678Z,100971.20
2022-07-29T11:17:55.407Z,100970.80
2022-07-29T11:23:42.785Z,100969.20
2022-07-29T11:26:10.790Z,100976.00
2022-07-29T11:28:51.140Z,100974.80
2022-07-29T11:31:45.635Z,100977.80
2022-07-29T11:34:21.072Z,100972.40
2022-07-29T11:37:12.454Z,100972.00
2022-07-29T11:39:46.237Z,100970.60
2022-07-29T11:45:43.140Z,100971.20
2022-07-29T11:48:29.894Z,100973.40
2022-07-29T11:51:00.831Z,100964.60
2022-07-29T11:53:33.034Z,100969.60
2022-07-29T11:56:02.612Z,100970.00
2022-07-29T11:58:32.453Z,100967.60
2022-07-29T12:01:04.998Z,100962.00
2022-07-29T12:03:36.111Z,100963.40
2022-07-29T12:06:21.841Z,100959.00
2022-07-29T12:07:03.261Z,100971.40
2022-07-29T12:08:49.636Z,100962.20
2022-07-29T12:11:21.801Z,100969.60
2022-07-29T12:13:52.266Z,100967.80
2022-07-29T12:16:25.677Z,100963.20
2022-07-29T12:18:59.767Z,100963.80
2022-07-29T12:21:28.927Z,100961.60
2022-07-29T12:24:03.414Z,100959.00
2022-07-29T12:26:34.306Z,100957.60
2022-07-29T12:29:04.323Z,100951.20
2022-07-29T12:31:43.406Z,100955.00
2022-07-29T12:34:16.571Z,100949.60
2022-07-29T12:36:44.727Z,100950.00
2022-07-29T12:39:13.415Z,100946.80
2022-07-29T12:41:41.301Z,100942.20
2022-07-29T12:44:09.101Z,100942.60
2022-07-29T12:46:37.200Z,100939.80
2022-07-29T12:49:05.544Z,100937.60
2022-07-29T12:51:39.978Z,100933.80
2022-07-29T12:54:11.541Z,100929.80
2022-07-29T12:56:43.648Z,100929.60
2022-07-29T12:59:23.247Z,100921.80
2022-07-29T13:01:53.140Z,100927.60
2022-07-29T13:04:30.226Z,100927.20
2022-07-29T13:07:08.332Z,100923.60
2022-07-29T13:09:43.968Z,100926.60
2022-07-29T13:12:14.471Z,100930.20
2022-07-29T13:14:50.772Z,100932.40
2022-07-29T13:17:23.806Z,100933.40
2022-07-29T13:20:09.699Z,100933.20
2022-07-29T13:22:37.378Z,100930.00
2022-07-29T13:25:08.876Z,100933.20
2022-07-29T13:27:39.310Z,100938.40
2022-07-29T13:30:10.296Z,100933.20
2022-07-29T13:32:38.618Z,100936.00
2022-07-29T13:35:09.275Z,100937.60
2022-07-29T13:37:39.553Z,100939.80
2022-07-29T13:40:10.306Z,100938.60
2022-07-29T13:42:38.651Z,100937.60
2022-07-29T13:45:07.763Z,100937.60
2022-07-29T13:47:35.952Z,100944.20
2022-07-29T13:50:10.810Z,100932.40
2022-07-29T13:52:39.218Z,100933.40
2022-07-29T13:55:08.234Z,100933.80
2022-07-29T13:57:36.539Z,100928.20
2022-07-29T14:00:05.050Z,100925.60
2022-07-29T14:02:36.240Z,100926.20
2022-07-29T14:05:08.285Z,100923.80
2022-07-29T14:07:39.561Z,100928.60
2022-07-29T14:10:08.230Z,100927.80
2022-07-29T14:12:35.989Z,100926.80
2022-07-29T14:15:04.386Z,100920.00
2022-07-29T14:17:32.125Z,100926.40
2022-07-29T14:19:59.817Z,100920.80
2022-07-29T14:22:27.585Z,100921.40
2022-07-29T14:24:55.309Z,100925.60
2022-07-29T14:27:37.399Z,100930.00
2022-07-29T14:30:07.727Z,100924.20
2022-07-29T14:32:35.615Z,100924.00
2022-07-29T14:35:03.749Z,100925.60
2022-07-29T14:37:39.391Z,100920.80
2022-07-29T14:40:10.575Z,100920.80
2022-07-29T14:42:39.328Z,100920.60
2022-07-29T14:45:09.519Z,100920.40
2022-07-29T14:47:39.066Z,100917.60
2022-07-29T14:50:07.940Z,100915.60
2022-07-29T14:52:36.154Z,100909.60
2022-07-29T14:55:05.560Z,100905.40
2022-07-29T14:57:44.435Z,100907.00
2022-07-29T15:00:13.771Z,100898.60
2022-07-29T15:03:01.001Z,100895.40
2022-07-29T15:05:30.863Z,100895.00
2022-07-29T15:08:00.530Z,100899.20
2022-07-29T15:10:28.424Z,100895.00
2022-07-29T15:12:58.041Z,100891.20
2022-07-29T15:15:26.377Z,100890.60
2022-07-29T15:17:54.177Z,100894.20
2022-07-29T15:20:22.445Z,100897.00
2022-07-29T15:22:50.194Z,100902.40
2022-07-29T15:25:17.995Z,100908.20
2022-07-29T15:27:48.970Z,100907.00
2022-07-29T15:30:31.455Z,100913.00
2022-07-29T15:33:03.935Z,100913.80
2022-07-29T15:35:32.261Z,100913.00
2022-07-29T15:38:00.038Z,100914.80
2022-07-29T15:40:29.075Z,100913.00
2022-07-29T15:42:57.154Z,100913.60
2022-07-29T15:45:25.163Z,100918.40
2022-07-29T15:47:52.828Z,100917.20
2022-07-29T15:50:21.195Z,100916.40
2022-07-29T15:52:48.993Z,100913.80
2022-07-29T15:55:16.778Z,100913.80
2022-07-29T15:57:44.490Z,100909.60
2022-07-29T16:00:13.770Z,100909.60
2022-07-29T16:02:41.581Z,100905.60
2022-07-29T16:05:09.738Z,100903.80
2022-07-29T16:07:37.800Z,100900.00
2022-07-29T16:10:07.855Z,100895.40
2022-07-29T16:12:35.659Z,100895.00
2022-07-29T16:15:09.422Z,100899.00
2022-07-29T16:17:39.058Z,100905.20
2022-07-29T16:20:08.109Z,100905.40
2022-07-29T16:22:36.261Z,100899.00
2022-07-29T16:25:04.571Z,100897.60
2022-07-29T16:27:37.397Z,100899.80
2022-07-29T16:30:10.282Z,100902.20
2022-07-29T16:32:38.240Z,100900.80
2022-07-29T16:35:07.920Z,100901.80
2022-07-29T16:37:37.121Z,100908.40
2022-07-29T16:40:06.981Z,100906.00
2022-07-29T16:42:50.713Z,100904.20
2022-07-29T16:45:21.305Z,100903.40
2022-07-29T16:47:49.270Z,100906.20
2022-07-29T16:50:17.856Z,100908.20
2022-07-29T16:52:45.590Z,100910.00
2022-07-29T16:55:13.317Z,100913.20
2022-07-29T16:57:42.707Z,100911.20
2022-07-29T17:00:11.698Z,100914.20
2022-07-29T17:02:39.490Z,100913.00
2022-07-29T17:05:08.752Z,100919.20
2022-07-29T17:07:37.136Z,100920.00
2022-07-29T17:10:08.099Z,100921.20
2022-07-29T17:12:37.925Z,100918.80
2022-07-29T17:15:09.446Z,100916.00
2022-07-29T17:17:38.857Z,100919.40
2022-07-29T17:20:14.927Z,100919.40
2022-07-29T17:22:45.357Z,100917.80
2022-07-29T17:25:21.201Z,100919.20
2022-07-29T17:27:50.910Z,100914.20
2022-07-29T17:30:18.889Z,100910.60
2022-07-29T17:32:46.660Z,100910.40
2022-07-29T17:35:32.879Z,100907.00
2022-07-29T17:38:00.665Z,100905.40
2022-07-29T17:40:28.509Z,100901.80
2022-07-29T17:42:56.437Z,100902.40
2022-07-29T17:45:24.361Z,100895.60
2022-07-29T17:47:52.086Z,100896.00
2022-07-29T17:50:19.814Z,100895.20
2022-07-29T17:52:47.559Z,100894.20
2022-07-29T17:55:15.361Z,100899.20
2022-07-29T17:57:43.095Z,100904.80
2022-07-29T18:00:11.423Z,100905.60
2022-07-29T18:02:39.428Z,100901.60
2022-07-29T18:05:07.641Z,100897.40
2022-07-29T18:07:35.428Z,100895.00
2022-07-29T18:10:03.646Z,100893.00
2022-07-29T18:12:31.585Z,100894.60
2022-07-29T18:14:59.326Z,100889.80
2022-07-29T18:17:45.986Z,100885.40
2022-07-29T18:20:15.486Z,100887.80
2022-07-29T18:22:43.312Z,100886.00
2022-07-29T18:25:12.016Z,100889.00
2022-07-29T18:27:40.129Z,100883.20
2022-07-29T18:30:08.753Z,100888.80
2022-07-29T18:32:36.753Z,100892.60
2022-07-29T18:35:05.814Z,100891.20
2022-07-29T18:38:02.069Z,100893.80
2022-07-29T18:40:25.314Z,100893.00
2022-07-29T18:42:53.538Z,100891.20
2022-07-29T18:45:21.383Z,100889.60
2022-07-29T18:47:49.510Z,100890.20
2022-07-29T18:50:17.624Z,100893.40
2022-07-29T18:52:48.378Z,100894.80
2022-07-29T18:55:16.166Z,100894.00
2022-07-29T18:57:55.336Z,100897.60
2022-07-29T19:00:26.488Z,100894.80
2022-07-29T19:02:54.358Z,100898.00
2022-07-29T19:05:23.355Z,100898.40
2022-07-29T19:07:51.153Z,100902.60
2022-07-29T19:10:18.910Z,100907.00
2022-07-29T19:12:46.644Z,100906.60
2022-07-29T19:15:19.993Z,100907.60
2022-07-29T19:17:48.803Z,100908.60
2022-07-29T19:20:16.919Z,100909.00
2022-07-29T19:22:44.875Z,100909.80
2022-07-29T19:25:12.692Z,100914.60
2022-07-29T19:27:41.794Z,100914.60
2022-07-29T19:30:10.136Z,100916.60
2022-07-29T19:32:38.814Z,100916.20
2022-07-29T19:35:25.543Z,100921.00
2022-07-29T19:37:55.612Z,100926.60
2022-07-29T19:40:23.702Z,100920.40
2022-07-29T19:42:52.989Z,100921.60
2022-07-29T19:45:24.617Z,100925.40
2022-07-29T19:47:53.481Z,100924.00
2022-07-29T19:50:25.061Z,100924.60
2022-07-29T19:52:53.193Z,100926.40
2022-07-29T19:55:21.860Z,100928.40
2022-07-29T19:57:52.602Z,100937.60
2022-07-29T20:00:21.414Z,100937.20
2022-07-29T20:02:49.910Z,100942.60
2022-07-29T20:05:18.590Z,100938.80
2022-07-29T20:07:47.788Z,100948.60
2022-07-29T20:10:15.849Z,100947.80
2022-07-29T20:12:43.705Z,100952.60
2022-07-29T20:15:16.354Z,100955.20
2022-07-29T20:17:44.663Z,100962.20
2022-07-29T20:20:12.482Z,100960.00
2022-07-29T20:22:40.185Z,100965.40
2022-07-29T20:25:09.932Z,100968.00
2022-07-29T20:27:40.467Z,100964.00
2022-07-29T20:30:09.063Z,100961.00
2022-07-29T20:32:40.826Z,100963.60
2022-07-29T20:35:09.923Z,100962.60
2022-07-29T20:37:52.246Z,100959.80
2022-07-29T20:40:26.019Z,100961.20
2022-07-29T20:42:55.555Z,100954.00
2022-07-29T20:45:24.822Z,100955.60
2022-07-29T20:47:53.280Z,100957.20
2022-07-29T20:50:23.869Z,100958.80
2022-07-29T20:52:52.774Z,100962.80
2022-07-29T20:55:21.314Z,100965.40
2022-07-29T20:57:49.046Z,100974.00
2022-07-29T21:00:17.138Z,100976.00
2022-07-29T21:02:44.882Z,100976.00
2022-07-29T21:05:12.674Z,100981.40
2022-07-29T21:07:40.450Z,100985.80
2022-07-29T21:10:08.574Z,100992.60
2022-07-29T21:12:36.526Z,100991.80
2022-07-29T21:15:06.502Z,100995.40
2022-07-29T21:17:36.111Z,101001.40
2022-07-29T21:20:05.435Z,101001.60
2022-07-29T21:22:33.186Z,101002.00
2022-07-29T21:25:01.671Z,100998.40
2022-07-29T21:27:48.138Z,101004.40
2022-07-29T21:30:16.005Z,101010.20
2022-07-29T21:32:43.978Z,101007.20
2022-07-29T21:35:23.409Z,101010.40
2022-07-29T21:37:59.736Z,101008.80
2022-07-29T21:40:27.549Z,101011.00
2022-07-29T21:42:55.247Z,101006.80
2022-07-29T21:45:23.004Z,101007.00
2022-07-29T21:47:50.840Z,101007.60
2022-07-29T21:50:18.843Z,101004.40
2022-07-29T21:52:46.577Z,101002.20
2022-07-29T21:55:15.334Z,100996.20
2022-07-29T21:57:46.351Z,100989.60
2022-07-29T22:00:17.561Z,100994.60
2022-07-29T22:02:45.660Z,100993.40
2022-07-29T22:05:14.933Z,100991.40
2022-07-29T22:07:56.477Z,100990.20
2022-07-29T22:10:26.821Z,100992.00
2022-07-29T22:12:57.120Z,100994.60
2022-07-29T22:15:26.398Z,100993.20
2022-07-29T22:17:54.175Z,100997.40
2022-07-29T22:20:23.586Z,100992.00
2022-07-29T22:22:51.676Z,100997.00
2022-07-29T22:25:20.066Z,100997.80
2022-07-29T22:27:48.367Z,101000.80
2022-07-29T22:30:17.022Z,101002.60
2022-07-29T22:32:44.958Z,101004.80
2022-07-29T22:35:12.688Z,101010.60
2022-07-29T22:37:40.410Z,101006.00
2022-07-29T22:40:08.709Z,101015.60
2022-07-29T22:42:36.617Z,101011.00
2022-07-29T22:45:10.618Z,101011.00
2022-07-29T22:47:47.947Z,101008.60
2022-07-29T22:50:17.429Z,101013.80
2022-07-29T22:52:46.880Z,101015.00
2022-07-29T22:55:15.450Z,101012.80
2022-07-29T22:57:43.271Z,101012.20
2022-07-29T23:00:12.752Z,101010.20
2022-07-29T23:02:41.384Z,101008.80
2022-07-29T23:05:10.518Z,101009.80
2022-07-29T23:07:38.634Z,101013.40
2022-07-29T23:10:07.012Z,101013.00
2022-07-29T23:12:34.905Z,101017.80
2022-07-29T23:15:02.712Z,101022.80
2022-07-29T23:17:36.106Z,101021.00
2022-07-29T23:20:09.818Z,101018.40
2022-07-29T23:22:37.830Z,101026.00
2022-07-29T23:25:06.669Z,101026.00
2022-07-29T23:27:34.582Z,101021.20
2022-07-29T23:30:02.717Z,101017.40
2022-07-29T23:32:30.539Z,101019.60
2022-07-29T23:34:58.275Z,101020.60
2022-07-29T23:37:26.806Z,101014.40
2022-07-29T23:39:54.834Z,101017.40
2022-07-29T23:42:22.823Z,101020.00
2022-07-29T23:44:50.781Z,101018.00
2022-07-29T23:47:18.556Z,101019.60
2022-07-29T23:49:46.501Z,101023.20
2022-07-29T23:52:14.237Z,101019.60
2022-07-29T23:54:42.139Z,101019.60
2022-07-29T23:57:09.873Z,101026.00
2022-07-29T23:59:37.606Z,101020.60
